Terminal Aerodrome Forecast
Issued by NWS Upton, NY

Home | Current Version | Previous Version | Text Only | Print | Product List | Glossary On
Versions: 1 2 3 4 5 6 7 8 9 10 11 12 13 14 15 16 17 18 19 20 21 22 23 24 25 26 27
000
FTUS41 KOKX 230200 AAA
TAFBDR
TAF AMD
KBDR 230246Z 2303/2324 08007KT P6SM FEW025 OVC070
      TEMPO 2303/2306 BKN025
     FM230800 06006KT P6SM OVC050
     FM231400 10008KT P6SM BKN050 OVC120
     FM231900 10010KT P6SM SCT050 BKN120=

USA.gov is the U.S. government's official web portal to all federal, state and local government web resources and services.